sensor_id;sensor_type;location;lat;lon;timestamp;temperature;humidity
1786;DHT22;890;48.158;11.540;2023-04-07T00:01:01;7.90;45.20
1786;DHT22;890;48.158;11.540;2023-04-07T00:03:27;7.90;45.20
1786;DHT22;890;48.158;11.540;2023-04-07T00:05:52;7.90;45.30
1786;DHT22;890;48.158;11.540;2023-04-07T00:08:18;7.90;45.50
1786;DHT22;890;48.158;11.540;2023-04-07T00:10:44;7.90;45.60
1786;DHT22;890;48.158;11.540;2023-04-07T00:13:09;7.90;45.60
1786;DHT22;890;48.158;11.540;2023-04-07T00:15:35;7.90;45.70
1786;DHT22;890;48.158;11.540;2023-04-07T00:18:01;7.90;45.70
1786;DHT22;890;48.158;11.540;2023-04-07T00:20:26;8.00;45.80
1786;DHT22;890;48.158;11.540;2023-04-07T00:22:52;8.00;45.90
1786;DHT22;890;48.158;11.540;2023-04-07T00:25:17;7.90;46.10
1786;DHT22;890;48.158;11.540;2023-04-07T00:27:43;7.90;46.20
1786;DHT22;890;48.158;11.540;2023-04-07T00:30:09;7.90;46.40
1786;DHT22;890;48.158;11.540;2023-04-07T00:32:35;7.90;46.30
1786;DHT22;890;48.158;11.540;2023-04-07T00:35:00;7.90;46.40
1786;DHT22;890;48.158;11.540;2023-04-07T00:37:26;7.90;46.50
1786;DHT22;890;48.158;11.540;2023-04-07T00:39:51;7.80;46.70
1786;DHT22;890;48.158;11.540;2023-04-07T00:42:18;7.80;46.90
1786;DHT22;890;48.158;11.540;2023-04-07T00:44:44;7.80;47.10
1786;DHT22;890;48.158;11.540;2023-04-07T00:47:09;7.70;47.20
1786;DHT22;890;48.158;11.540;2023-04-07T00:49:38;7.60;47.30
1786;DHT22;890;48.158;11.540;2023-04-07T00:52:04;7.50;47.60
1786;DHT22;890;48.158;11.540;2023-04-07T00:54:30;7.50;47.60
1786;DHT22;890;48.158;11.540;2023-04-07T00:56:56;7.40;47.70
1786;DHT22;890;48.158;11.540;2023-04-07T00:59:22;7.40;47.90
1786;DHT22;890;48.158;11.540;2023-04-07T01:02:05;7.40;48.00
1786;DHT22;890;48.158;11.540;2023-04-07T01:04:38;7.30;48.30
1786;DHT22;890;48.158;11.540;2023-04-07T01:07:17;7.30;48.10
1786;DHT22;890;48.158;11.540;2023-04-07T01:10:03;7.30;48.40
1786;DHT22;890;48.158;11.540;2023-04-07T01:12:55;7.20;48.30
1786;DHT22;890;48.158;11.540;2023-04-07T01:15:20;7.20;48.30
1786;DHT22;890;48.158;11.540;2023-04-07T01:17:49;7.20;48.40
1786;DHT22;890;48.158;11.540;2023-04-07T01:20:19;7.20;48.60
1786;DHT22;890;48.158;11.540;2023-04-07T01:22:52;7.10;48.50
1786;DHT22;890;48.158;11.540;2023-04-07T01:30:38;7.20;48.90
1786;DHT22;890;48.158;11.540;2023-04-07T01:33:06;7.10;49.00
1786;DHT22;890;48.158;11.540;2023-04-07T01:35:34;7.10;49.00
1786;DHT22;890;48.158;11.540;2023-04-07T01:38:02;7.10;49.20
1786;DHT22;890;48.158;11.540;2023-04-07T01:40:28;7.10;49.30
1786;DHT22;890;48.158;11.540;2023-04-07T01:42:56;7.10;49.40
1786;DHT22;890;48.158;11.540;2023-04-07T01:45:22;7.00;49.50
1786;DHT22;890;48.158;11.540;2023-04-07T01:47:49;7.10;49.50
1786;DHT22;890;48.158;11.540;2023-04-07T01:50:15;7.10;49.60
1786;DHT22;890;48.158;11.540;2023-04-07T01:52:42;7.00;49.60
1786;DHT22;890;48.158;11.540;2023-04-07T01:55:08;7.00;49.90
1786;DHT22;890;48.158;11.540;2023-04-07T01:57:34;7.00;50.10
1786;DHT22;890;48.158;11.540;2023-04-07T02:00:00;6.90;50.20
1786;DHT22;890;48.158;11.540;2023-04-07T02:02:26;6.90;50.40
1786;DHT22;890;48.158;11.540;2023-04-07T02:05:00;6.90;50.60
1786;DHT22;890;48.158;11.540;2023-04-07T02:07:52;6.90;50.90
1786;DHT22;890;48.158;11.540;2023-04-07T02:10:21;6.80;51.10
1786;DHT22;890;48.158;11.540;2023-04-07T02:12:48;6.90;51.20
1786;DHT22;890;48.158;11.540;2023-04-07T02:15:14;6.90;51.30
1786;DHT22;890;48.158;11.540;2023-04-07T02:17:43;6.90;51.60
1786;DHT22;890;48.158;11.540;2023-04-07T02:20:11;7.00;51.80
1786;DHT22;890;48.158;11.540;2023-04-07T02:22:38;7.00;51.90
1786;DHT22;890;48.158;11.540;2023-04-07T02:25:24;7.00;52.00
1786;DHT22;890;48.158;11.540;2023-04-07T02:27:50;7.00;52.40
1786;DHT22;890;48.158;11.540;2023-04-07T02:30:16;7.10;52.20
1786;DHT22;890;48.158;11.540;2023-04-07T02:32:41;7.10;52.40
1786;DHT22;890;48.158;11.540;2023-04-07T02:35:07;7.20;52.60
1786;DHT22;890;48.158;11.540;2023-04-07T02:37:33;7.20;52.70
1786;DHT22;890;48.158;11.540;2023-04-07T02:39:58;7.20;52.90
1786;DHT22;890;48.158;11.540;2023-04-07T02:42:24;7.30;53.20
1786;DHT22;890;48.158;11.540;2023-04-07T02:44:49;7.20;53.30
1786;DHT22;890;48.158;11.540;2023-04-07T02:47:15;7.20;53.60
1786;DHT22;890;48.158;11.540;2023-04-07T02:49:41;7.20;54.00
1786;DHT22;890;48.158;11.540;2023-04-07T02:52:06;7.30;54.30
1786;DHT22;890;48.158;11.540;2023-04-07T02:54:32;7.30;54.40
1786;DHT22;890;48.158;11.540;2023-04-07T02:56:58;7.30;54.60
1786;DHT22;890;48.158;11.540;2023-04-07T02:59:23;7.40;54.90
1786;DHT22;890;48.158;11.540;2023-04-07T03:01:49;7.40;55.00
1786;DHT22;890;48.158;11.540;2023-04-07T03:04:15;7.50;55.30
1786;DHT22;890;48.158;11.540;2023-04-07T03:06:40;7.50;56.10
1786;DHT22;890;48.158;11.540;2023-04-07T03:09:06;7.50;55.70
1786;DHT22;890;48.158;11.540;2023-04-07T03:11:31;7.50;56.00
1786;DHT22;890;48.158;11.540;2023-04-07T03:13:57;7.60;56.20
1786;DHT22;890;48.158;11.540;2023-04-07T03:16:23;7.70;56.40
1786;DHT22;890;48.158;11.540;2023-04-07T03:18:48;7.60;56.50
1786;DHT22;890;48.158;11.540;2023-04-07T03:21:14;7.60;56.60
1786;DHT22;890;48.158;11.540;2023-04-07T03:23:39;7.50;56.70
1786;DHT22;890;48.158;11.540;2023-04-07T03:26:05;7.50;57.00
1786;DHT22;890;48.158;11.540;2023-04-07T03:28:31;7.50;57.30
1786;DHT22;890;48.158;11.540;2023-04-07T03:30:56;7.50;57.50
1786;DHT22;890;48.158;11.540;2023-04-07T03:33:22;7.50;57.60
1786;DHT22;890;48.158;11.540;2023-04-07T03:35:47;7.60;57.90
1786;DHT22;890;48.158;11.540;2023-04-07T03:38:13;7.60;58.00
1786;DHT22;890;48.158;11.540;2023-04-07T03:40:38;7.50;58.20
1786;DHT22;890;48.158;11.540;2023-04-07T03:43:04;7.50;58.50
1786;DHT22;890;48.158;11.540;2023-04-07T03:45:32;7.60;58.80
1786;DHT22;890;48.158;11.540;2023-04-07T03:47:57;7.60;58.90
1786;DHT22;890;48.158;11.540;2023-04-07T03:50:23;7.50;59.10
1786;DHT22;890;48.158;11.540;2023-04-07T03:52:48;7.40;59.30
1786;DHT22;890;48.158;11.540;2023-04-07T03:55:14;7.40;59.50
1786;DHT22;890;48.158;11.540;2023-04-07T03:57:40;7.40;59.80
1786;DHT22;890;48.158;11.540;2023-04-07T04:00:06;7.30;59.90
1786;DHT22;890;48.158;11.540;2023-04-07T04:02:31;7.20;60.20
1786;DHT22;890;48.158;11.540;2023-04-07T04:04:57;7.30;60.70
1786;DHT22;890;48.158;11.540;2023-04-07T04:07:23;7.20;60.80
1786;DHT22;890;48.158;11.540;2023-04-07T04:09:50;7.20;61.00
1786;DHT22;890;48.158;11.540;2023-04-07T04:12:16;7.20;61.60
1786;DHT22;890;48.158;11.540;2023-04-07T04:14:41;7.20;61.70
1786;DHT22;890;48.158;11.540;2023-04-07T04:17:07;7.10;61.90
1786;DHT22;890;48.158;11.540;2023-04-07T04:19:33;7.10;62.30
1786;DHT22;890;48.158;11.540;2023-04-07T04:21:58;7.00;62.60
1786;DHT22;890;48.158;11.540;2023-04-07T04:24:24;7.10;63.00
1786;DHT22;890;48.158;11.540;2023-04-07T04:26:49;7.10;63.00
1786;DHT22;890;48.158;11.540;2023-04-07T04:29:15;7.20;63.20
1786;DHT22;890;48.158;11.540;2023-04-07T04:31:40;7.20;63.20
1786;DHT22;890;48.158;11.540;2023-04-07T04:34:06;7.20;63.00
1786;DHT22;890;48.158;11.540;2023-04-07T04:36:32;7.10;63.10
1786;DHT22;890;48.158;11.540;2023-04-07T04:38:57;7.10;63.40
1786;DHT22;890;48.158;11.540;2023-04-07T04:41:23;7.00;63.60
1786;DHT22;890;48.158;11.540;2023-04-07T04:43:48;6.90;63.60
1786;DHT22;890;48.158;11.540;2023-04-07T04:46:14;6.90;63.70
1786;DHT22;890;48.158;11.540;2023-04-07T04:48:39;6.80;63.90
1786;DHT22;890;48.158;11.540;2023-04-07T04:51:06;6.80;64.10
1786;DHT22;890;48.158;11.540;2023-04-07T04:53:31;7.00;64.50
1786;DHT22;890;48.158;11.540;2023-04-07T04:55:57;6.90;64.40
1786;DHT22;890;48.158;11.540;2023-04-07T04:58:23;6.90;64.30
1786;DHT22;890;48.158;11.540;2023-04-07T05:00:48;6.90;64.20
1786;DHT22;890;48.158;11.540;2023-04-07T05:03:14;6.90;64.50
1786;DHT22;890;48.158;11.540;2023-04-07T05:05:39;8.00;65.60
1786;DHT22;890;48.158;11.540;2023-04-07T05:08:05;6.90;64.60
1786;DHT22;890;48.158;11.540;2023-04-07T05:10:31;6.90;65.50
1786;DHT22;890;48.158;11.540;2023-04-07T05:12:57;7.00;65.00
1786;DHT22;890;48.158;11.540;2023-04-07T05:15:22;7.00;65.10
1786;DHT22;890;48.158;11.540;2023-04-07T05:17:48;7.00;65.20
1786;DHT22;890;48.158;11.540;2023-04-07T05:20:15;7.00;65.00
1786;DHT22;890;48.158;11.540;2023-04-07T05:22:41;7.00;65.30
1786;DHT22;890;48.158;11.540;2023-04-07T05:25:07;7.00;65.50
1786;DHT22;890;48.158;11.540;2023-04-07T05:27:32;7.00;65.50
1786;DHT22;890;48.158;11.540;2023-04-07T05:29:58;7.10;65.40
1786;DHT22;890;48.158;11.540;2023-04-07T05:32:24;7.10;65.60
1786;DHT22;890;48.158;11.540;2023-04-07T05:34:51;7.10;65.80
1786;DHT22;890;48.158;11.540;2023-04-07T05:37:16;7.10;66.00
1786;DHT22;890;48.158;11.540;2023-04-07T05:39:42;7.10;66.00
1786;DHT22;890;48.158;11.540;2023-04-07T05:42:07;7.20;66.00
1786;DHT22;890;48.158;11.540;2023-04-07T05:44:33;7.20;66.10
1786;DHT22;890;48.158;11.540;2023-04-07T05:46:58;7.30;66.00
1786;DHT22;890;48.158;11.540;2023-04-07T05:49:24;7.30;66.10
1786;DHT22;890;48.158;11.540;2023-04-07T05:51:50;7.40;66.10
1786;DHT22;890;48.158;11.540;2023-04-07T05:54:16;7.50;66.60
1786;DHT22;890;48.158;11.540;2023-04-07T05:56:41;7.50;65.90
1786;DHT22;890;48.158;11.540;2023-04-07T05:59:07;7.40;65.90
1786;DHT22;890;48.158;11.540;2023-04-07T06:01:33;7.50;65.70
1786;DHT22;890;48.158;11.540;2023-04-07T06:03:58;7.60;65.90
1786;DHT22;890;48.158;11.540;2023-04-07T06:06:24;7.60;65.90
1786;DHT22;890;48.158;11.540;2023-04-07T06:08:51;7.60;66.70
1786;DHT22;890;48.158;11.540;2023-04-07T06:11:16;7.70;65.90
1786;DHT22;890;48.158;11.540;2023-04-07T06:13:42;7.70;65.80
1786;DHT22;890;48.158;11.540;2023-04-07T06:16:07;7.70;65.80
1786;DHT22;890;48.158;11.540;2023-04-07T06:18:33;7.70;65.90
1786;DHT22;890;48.158;11.540;2023-04-07T06:20:59;7.70;65.90
1786;DHT22;890;48.158;11.540;2023-04-07T06:23:24;7.80;65.90
1786;DHT22;890;48.158;11.540;2023-04-07T06:25:50;7.90;65.80
1786;DHT22;890;48.158;11.540;2023-04-07T06:28:17;8.00;65.80
1786;DHT22;890;48.158;11.540;2023-04-07T06:30:43;7.90;65.60
1786;DHT22;890;48.158;11.540;2023-04-07T06:33:09;7.90;65.70
1786;DHT22;890;48.158;11.540;2023-04-07T06:35:34;7.90;65.80
1786;DHT22;890;48.158;11.540;2023-04-07T06:38:00;8.00;65.80
1786;DHT22;890;48.158;11.540;2023-04-07T06:40:26;8.10;65.80
1786;DHT22;890;48.158;11.540;2023-04-07T06:42:52;8.20;65.60
1786;DHT22;890;48.158;11.540;2023-04-07T06:45:19;8.30;65.20
1786;DHT22;890;48.158;11.540;2023-04-07T06:47:44;8.30;65.00
1786;DHT22;890;48.158;11.540;2023-04-07T06:50:10;8.30;65.00
1786;DHT22;890;48.158;11.540;2023-04-07T06:52:36;8.40;65.00
1786;DHT22;890;48.158;11.540;2023-04-07T06:55:01;8.40;64.70
1786;DHT22;890;48.158;11.540;2023-04-07T06:57:27;8.50;64.70
1786;DHT22;890;48.158;11.540;2023-04-07T06:59:53;8.50;64.70
1786;DHT22;890;48.158;11.540;2023-04-07T07:02:18;8.50;64.70
1786;DHT22;890;48.158;11.540;2023-04-07T07:04:44;9.20;65.40
1786;DHT22;890;48.158;11.540;2023-04-07T07:07:10;8.60;64.60
1786;DHT22;890;48.158;11.540;2023-04-07T07:09:35;8.70;64.50
1786;DHT22;890;48.158;11.540;2023-04-07T07:12:02;8.70;64.50
1786;DHT22;890;48.158;11.540;2023-04-07T07:14:28;8.70;64.50
1786;DHT22;890;48.158;11.540;2023-04-07T07:16:53;8.80;64.70
1786;DHT22;890;48.158;11.540;2023-04-07T07:19:19;8.90;64.80
1786;DHT22;890;48.158;11.540;2023-04-07T07:21:44;9.10;64.60
1786;DHT22;890;48.158;11.540;2023-04-07T07:24:10;9.20;64.40
1786;DHT22;890;48.158;11.540;2023-04-07T07:26:35;9.20;64.20
1786;DHT22;890;48.158;11.540;2023-04-07T07:29:01;9.30;64.50
1786;DHT22;890;48.158;11.540;2023-04-07T07:31:27;9.50;64.30
1786;DHT22;890;48.158;11.540;2023-04-07T07:33:52;9.60;63.90
1786;DHT22;890;48.158;11.540;2023-04-07T07:36:18;9.50;63.40
1786;DHT22;890;48.158;11.540;2023-04-07T07:38:43;9.60;63.70
1786;DHT22;890;48.158;11.540;2023-04-07T07:41:09;9.70;63.80
1786;DHT22;890;48.158;11.540;2023-04-07T07:43:34;9.90;63.70
1786;DHT22;890;48.158;11.540;2023-04-07T07:46:01;10.40;63.00
1786;DHT22;890;48.158;11.540;2023-04-07T07:48:27;10.00;62.30
1786;DHT22;890;48.158;11.540;2023-04-07T07:50:52;10.10;61.70
1786;DHT22;890;48.158;11.540;2023-04-07T07:53:21;11.30;62.80
1786;DHT22;890;48.158;11.540;2023-04-07T07:55:46;9.90;62.20
1786;DHT22;890;48.158;11.540;2023-04-07T07:58:12;9.60;61.90
1786;DHT22;890;48.158;11.540;2023-04-07T08:00:38;9.50;62.10
1786;DHT22;890;48.158;11.540;2023-04-07T08:03:03;9.60;62.40
1786;DHT22;890;48.158;11.540;2023-04-07T08:05:29;9.50;62.20
1786;DHT22;890;48.158;11.540;2023-04-07T08:07:55;9.40;61.90
1786;DHT22;890;48.158;11.540;2023-04-07T08:10:20;7.80;60.30
1786;DHT22;890;48.158;11.540;2023-04-07T08:12:46;9.40;62.10
1786;DHT22;890;48.158;11.540;2023-04-07T08:15:12;9.40;62.00
1786;DHT22;890;48.158;11.540;2023-04-07T08:17:37;9.60;62.20
1786;DHT22;890;48.158;11.540;2023-04-07T08:20:03;9.80;62.30
1786;DHT22;890;48.158;11.540;2023-04-07T08:22:29;9.90;62.10
1786;DHT22;890;48.158;11.540;2023-04-07T08:24:55;10.00;60.90
1786;DHT22;890;48.158;11.540;2023-04-07T08:27:20;10.10;60.90
1786;DHT22;890;48.158;11.540;2023-04-07T08:30:00;10.40;60.00
1786;DHT22;890;48.158;11.540;2023-04-07T08:32:47;10.40;60.00
1786;DHT22;890;48.158;11.540;2023-04-07T08:35:12;10.60;59.90
1786;DHT22;890;48.158;11.540;2023-04-07T08:37:39;10.80;60.20
1786;DHT22;890;48.158;11.540;2023-04-07T08:40:06;11.00;59.80
1786;DHT22;890;48.158;11.540;2023-04-07T08:42:32;10.80;59.40
1786;DHT22;890;48.158;11.540;2023-04-07T08:45:07;10.90;59.70
1786;DHT22;890;48.158;11.540;2023-04-07T08:47:35;11.00;59.40
1786;DHT22;890;48.158;11.540;2023-04-07T08:50:06;11.10;59.30
1786;DHT22;890;48.158;11.540;2023-04-07T08:52:53;11.20;59.20
1786;DHT22;890;48.158;11.540;2023-04-07T08:55:19;11.30;59.00
1786;DHT22;890;48.158;11.540;2023-04-07T08:57:45;11.70;59.40
1786;DHT22;890;48.158;11.540;2023-04-07T09:00:12;11.80;59.50
1786;DHT22;890;48.158;11.540;2023-04-07T09:02:40;12.10;59.70
1786;DHT22;890;48.158;11.540;2023-04-07T09:05:08;12.30;59.60
1786;DHT22;890;48.158;11.540;2023-04-07T09:07:35;12.50;59.40
1786;DHT22;890;48.158;11.540;2023-04-07T09:10:01;12.60;58.90
1786;DHT22;890;48.158;11.540;2023-04-07T09:12:28;12.80;58.90
1786;DHT22;890;48.158;11.540;2023-04-07T09:14:54;13.00;58.50
1786;DHT22;890;48.158;11.540;2023-04-07T09:17:20;13.30;58.60
1786;DHT22;890;48.158;11.540;2023-04-07T09:19:46;13.60;59.10
1786;DHT22;890;48.158;11.540;2023-04-07T09:22:12;13.80;58.60
1786;DHT22;890;48.158;11.540;2023-04-07T09:24:40;14.00;58.60
1786;DHT22;890;48.158;11.540;2023-04-07T09:27:10;14.10;57.80
1786;DHT22;890;48.158;11.540;2023-04-07T09:29:36;14.20;56.90
1786;DHT22;890;48.158;11.540;2023-04-07T09:32:02;14.40;56.60
1786;DHT22;890;48.158;11.540;2023-04-07T09:34:30;14.50;56.60
1786;DHT22;890;48.158;11.540;2023-04-07T09:36:57;14.60;57.00
1786;DHT22;890;48.158;11.540;2023-04-07T09:39:23;14.60;56.50
1786;DHT22;890;48.158;11.540;2023-04-07T09:41:49;14.90;58.70
1786;DHT22;890;48.158;11.540;2023-04-07T09:44:15;15.50;60.00
1786;DHT22;890;48.158;11.540;2023-04-07T09:46:55;15.80;57.70
1786;DHT22;890;48.158;11.540;2023-04-07T09:49:26;15.60;54.40
1786;DHT22;890;48.158;11.540;2023-04-07T09:54:31;16.20;60.80
1786;DHT22;890;48.158;11.540;2023-04-07T09:57:00;17.60;63.50
1786;DHT22;890;48.158;11.540;2023-04-07T09:59:27;18.70;63.60
1786;DHT22;890;48.158;11.540;2023-04-07T10:01:54;19.90;62.70
1786;DHT22;890;48.158;11.540;2023-04-07T10:04:21;21.10;59.00
1786;DHT22;890;48.158;11.540;2023-04-07T10:06:47;21.50;53.00
1786;DHT22;890;48.158;11.540;2023-04-07T10:09:13;21.10;49.10
1786;DHT22;890;48.158;11.540;2023-04-07T10:11:40;21.60;52.10
1786;DHT22;890;48.158;11.540;2023-04-07T10:14:08;21.50;53.40
1786;DHT22;890;48.158;11.540;2023-04-07T10:16:36;20.80;50.10
1786;DHT22;890;48.158;11.540;2023-04-07T10:19:02;19.80;46.60
1786;DHT22;890;48.158;11.540;2023-04-07T10:21:28;18.90;44.70
1786;DHT22;890;48.158;11.540;2023-04-07T10:24:12;18.00;45.00
1786;DHT22;890;48.158;11.540;2023-04-07T10:26:49;17.90;46.80
1786;DHT22;890;48.158;11.540;2023-04-07T10:29:16;18.20;49.60
1786;DHT22;890;48.158;11.540;2023-04-07T10:31:44;19.40;52.10
1786;DHT22;890;48.158;11.540;2023-04-07T10:34:10;20.30;50.60
1786;DHT22;890;48.158;11.540;2023-04-07T10:37:09;21.10;53.30
1786;DHT22;890;48.158;11.540;2023-04-07T10:39:35;22.00;50.90
1786;DHT22;890;48.158;11.540;2023-04-07T10:42:02;23.00;50.70
1786;DHT22;890;48.158;11.540;2023-04-07T10:44:46;23.70;49.90
1786;DHT22;890;48.158;11.540;2023-04-07T10:47:14;24.50;49.00
1786;DHT22;890;48.158;11.540;2023-04-07T10:50:18;25.00;47.70
1786;DHT22;890;48.158;11.540;2023-04-07T10:52:46;25.30;46.90
1786;DHT22;890;48.158;11.540;2023-04-07T10:55:31;25.50;47.60
1786;DHT22;890;48.158;11.540;2023-04-07T10:58:35;26.10;43.70
1786;DHT22;890;48.158;11.540;2023-04-07T11:03:55;25.90;43.60
1786;DHT22;890;48.158;11.540;2023-04-07T11:06:22;26.10;43.20
1786;DHT22;890;48.158;11.540;2023-04-07T11:08:48;26.10;41.70
1786;DHT22;890;48.158;11.540;2023-04-07T11:11:19;25.50;40.50
1786;DHT22;890;48.158;11.540;2023-04-07T11:13:47;24.70;38.30
1786;DHT22;890;48.158;11.540;2023-04-07T11:16:14;23.80;40.10
1786;DHT22;890;48.158;11.540;2023-04-07T11:18:41;22.90;38.70
1786;DHT22;890;48.158;11.540;2023-04-07T11:21:07;21.80;36.90
1786;DHT22;890;48.158;11.540;2023-04-07T11:23:44;20.70;36.10
1786;DHT22;890;48.158;11.540;2023-04-07T11:26:14;19.50;36.50
1786;DHT22;890;48.158;11.540;2023-04-07T11:28:52;18.60;37.50
1786;DHT22;890;48.158;11.540;2023-04-07T11:31:25;18.30;38.80
1786;DHT22;890;48.158;11.540;2023-04-07T11:34:02;18.10;38.10
1786;DHT22;890;48.158;11.540;2023-04-07T11:36:31;17.50;38.40
1786;DHT22;890;48.158;11.540;2023-04-07T11:38:59;17.10;39.50
1786;DHT22;890;48.158;11.540;2023-04-07T11:41:27;16.80;39.50
1786;DHT22;890;48.158;11.540;2023-04-07T11:44:09;17.00;40.30
1786;DHT22;890;48.158;11.540;2023-04-07T11:46:36;17.20;39.80
1786;DHT22;890;48.158;11.540;2023-04-07T11:49:12;17.40;39.30
1786;DHT22;890;48.158;11.540;2023-04-07T11:51:38;17.30;39.00
1786;DHT22;890;48.158;11.540;2023-04-07T11:54:04;17.70;40.50
1786;DHT22;890;48.158;11.540;2023-04-07T11:56:40;18.90;42.20
1786;DHT22;890;48.158;11.540;2023-04-07T11:59:06;19.90;42.20
1786;DHT22;890;48.158;11.540;2023-04-07T12:01:39;20.60;41.30
1786;DHT22;890;48.158;11.540;2023-04-07T12:04:06;20.40;38.70
1786;DHT22;890;48.158;11.540;2023-04-07T12:06:36;20.50;40.00
1786;DHT22;890;48.158;11.540;2023-04-07T12:09:08;21.20;41.50
1786;DHT22;890;48.158;11.540;2023-04-07T12:11:34;21.50;38.90
1786;DHT22;890;48.158;11.540;2023-04-07T12:14:01;20.40;37.30
1786;DHT22;890;48.158;11.540;2023-04-07T12:16:29;19.90;37.20
1786;DHT22;890;48.158;11.540;2023-04-07T12:18:55;19.30;37.10
1786;DHT22;890;48.158;11.540;2023-04-07T12:21:22;18.90;36.90
1786;DHT22;890;48.158;11.540;2023-04-07T12:23:48;18.40;37.00
1786;DHT22;890;48.158;11.540;2023-04-07T12:26:14;18.10;37.20
1786;DHT22;890;48.158;11.540;2023-04-07T12:28:39;17.60;37.30
1786;DHT22;890;48.158;11.540;2023-04-07T12:31:05;17.10;37.50
1786;DHT22;890;48.158;11.540;2023-04-07T12:33:31;16.80;38.00
1786;DHT22;890;48.158;11.540;2023-04-07T12:35:57;16.50;38.20
1786;DHT22;890;48.158;11.540;2023-04-07T12:38:23;16.30;38.10
1786;DHT22;890;48.158;11.540;2023-04-07T12:40:48;16.20;38.30
1786;DHT22;890;48.158;11.540;2023-04-07T12:43:14;16.10;38.80
1786;DHT22;890;48.158;11.540;2023-04-07T12:45:40;16.20;39.00
1786;DHT22;890;48.158;11.540;2023-04-07T12:48:06;16.00;39.00
1786;DHT22;890;48.158;11.540;2023-04-07T12:50:32;16.00;39.20
1786;DHT22;890;48.158;11.540;2023-04-07T12:52:59;16.10;39.40
1786;DHT22;890;48.158;11.540;2023-04-07T12:55:28;15.90;39.30
1786;DHT22;890;48.158;11.540;2023-04-07T12:57:53;15.50;39.60
1786;DHT22;890;48.158;11.540;2023-04-07T13:00:20;15.30;40.10
1786;DHT22;890;48.158;11.540;2023-04-07T13:02:45;15.30;40.20
1786;DHT22;890;48.158;11.540;2023-04-07T13:05:11;15.30;40.20
1786;DHT22;890;48.158;11.540;2023-04-07T13:07:37;15.20;40.50
1786;DHT22;890;48.158;11.540;2023-04-07T13:10:03;15.40;40.90
1786;DHT22;890;48.158;11.540;2023-04-07T13:12:30;14.90;40.70
1786;DHT22;890;48.158;11.540;2023-04-07T13:14:55;14.80;40.90
1786;DHT22;890;48.158;11.540;2023-04-07T13:17:21;14.70;40.90
1786;DHT22;890;48.158;11.540;2023-04-07T13:19:46;14.80;41.30
1786;DHT22;890;48.158;11.540;2023-04-07T13:22:12;14.60;41.40
1786;DHT22;890;48.158;11.540;2023-04-07T13:24:38;14.50;41.70
1786;DHT22;890;48.158;11.540;2023-04-07T13:27:04;14.40;41.90
1786;DHT22;890;48.158;11.540;2023-04-07T13:29:30;14.50;42.00
1786;DHT22;890;48.158;11.540;2023-04-07T13:32:06;14.50;42.20
1786;DHT22;890;48.158;11.540;2023-04-07T13:34:33;14.40;42.70
1786;DHT22;890;48.158;11.540;2023-04-07T13:37:00;14.40;42.50
1786;DHT22;890;48.158;11.540;2023-04-07T13:39:27;14.80;43.20
1786;DHT22;890;48.158;11.540;2023-04-07T13:41:52;14.90;43.20
1786;DHT22;890;48.158;11.540;2023-04-07T13:44:18;14.60;42.90
1786;DHT22;890;48.158;11.540;2023-04-07T13:46:43;14.60;43.10
1786;DHT22;890;48.158;11.540;2023-04-07T13:49:09;14.60;43.10
1786;DHT22;890;48.158;11.540;2023-04-07T13:51:35;14.50;43.20
1786;DHT22;890;48.158;11.540;2023-04-07T13:54:00;14.40;43.40
1786;DHT22;890;48.158;11.540;2023-04-07T13:56:26;14.40;43.60
1786;DHT22;890;48.158;11.540;2023-04-07T13:58:52;14.60;43.60
1786;DHT22;890;48.158;11.540;2023-04-07T14:01:18;15.00;44.00
1786;DHT22;890;48.158;11.540;2023-04-07T14:03:44;14.50;43.60
1786;DHT22;890;48.158;11.540;2023-04-07T14:06:10;14.50;43.70
1786;DHT22;890;48.158;11.540;2023-04-07T14:08:35;14.50;43.90
1786;DHT22;890;48.158;11.540;2023-04-07T14:11:01;14.40;44.10
1786;DHT22;890;48.158;11.540;2023-04-07T14:13:27;14.30;44.30
1786;DHT22;890;48.158;11.540;2023-04-07T14:15:52;14.40;44.40
1786;DHT22;890;48.158;11.540;2023-04-07T14:18:18;14.40;44.30
1786;DHT22;890;48.158;11.540;2023-04-07T14:20:44;14.30;44.50
1786;DHT22;890;48.158;11.540;2023-04-07T14:23:09;14.30;44.80
1786;DHT22;890;48.158;11.540;2023-04-07T14:25:35;14.30;44.80
1786;DHT22;890;48.158;11.540;2023-04-07T14:28:01;14.40;44.70
1786;DHT22;890;48.158;11.540;2023-04-07T14:30:27;14.30;44.70
1786;DHT22;890;48.158;11.540;2023-04-07T14:32:52;14.20;44.80
1786;DHT22;890;48.158;11.540;2023-04-07T14:35:18;14.90;45.50
1786;DHT22;890;48.158;11.540;2023-04-07T14:37:43;14.20;45.10
1786;DHT22;890;48.158;11.540;2023-04-07T14:40:10;14.40;45.40
1786;DHT22;890;48.158;11.540;2023-04-07T14:42:36;14.10;45.30
1786;DHT22;890;48.158;11.540;2023-04-07T14:45:01;14.20;45.50
1786;DHT22;890;48.158;11.540;2023-04-07T14:47:27;14.10;45.50
1786;DHT22;890;48.158;11.540;2023-04-07T14:49:53;14.10;45.60
1786;DHT22;890;48.158;11.540;2023-04-07T14:52:18;14.20;45.70
1786;DHT22;890;48.158;11.540;2023-04-07T14:54:45;14.20;45.80
1786;DHT22;890;48.158;11.540;2023-04-07T14:57:11;14.00;46.20
1786;DHT22;890;48.158;11.540;2023-04-07T14:59:37;13.90;45.70
1786;DHT22;890;48.158;11.540;2023-04-07T15:02:02;11.90;44.10
1786;DHT22;890;48.158;11.540;2023-04-07T15:04:28;13.80;45.60
1786;DHT22;890;48.158;11.540;2023-04-07T15:06:54;13.70;45.90
1786;DHT22;890;48.158;11.540;2023-04-07T15:09:20;13.70;45.90
1786;DHT22;890;48.158;11.540;2023-04-07T15:11:45;13.70;45.90
1786;DHT22;890;48.158;11.540;2023-04-07T15:14:11;13.70;45.80
1786;DHT22;890;48.158;11.540;2023-04-07T15:16:37;14.00;46.30
1786;DHT22;890;48.158;11.540;2023-04-07T15:19:02;13.60;46.40
1786;DHT22;890;48.158;11.540;2023-04-07T15:21:28;13.60;46.60
1786;DHT22;890;48.158;11.540;2023-04-07T15:23:54;13.50;46.80
1786;DHT22;890;48.158;11.540;2023-04-07T15:26:19;13.60;46.90
1786;DHT22;890;48.158;11.540;2023-04-07T15:28:45;13.50;46.90
1786;DHT22;890;48.158;11.540;2023-04-07T15:31:11;13.40;47.00
1786;DHT22;890;48.158;11.540;2023-04-07T15:33:38;13.40;47.20
1786;DHT22;890;48.158;11.540;2023-04-07T15:36:05;13.50;47.20
1786;DHT22;890;48.158;11.540;2023-04-07T15:38:31;13.60;47.30
1786;DHT22;890;48.158;11.540;2023-04-07T15:40:56;13.60;47.40
1786;DHT22;890;48.158;11.540;2023-04-07T15:43:22;13.60;47.70
1786;DHT22;890;48.158;11.540;2023-04-07T15:45:48;13.60;47.80
1786;DHT22;890;48.158;11.540;2023-04-07T15:48:14;13.60;47.70
1786;DHT22;890;48.158;11.540;2023-04-07T15:50:39;13.60;47.70
1786;DHT22;890;48.158;11.540;2023-04-07T15:53:05;13.60;47.70
1786;DHT22;890;48.158;11.540;2023-04-07T15:55:32;13.50;48.10
1786;DHT22;890;48.158;11.540;2023-04-07T15:57:59;13.50;48.10
1786;DHT22;890;48.158;11.540;2023-04-07T16:00:25;13.60;47.90
1786;DHT22;890;48.158;11.540;2023-04-07T16:02:51;13.70;47.70
1786;DHT22;890;48.158;11.540;2023-04-07T16:05:17;13.70;47.50
1786;DHT22;890;48.158;11.540;2023-04-07T16:07:42;13.70;47.70
1786;DHT22;890;48.158;11.540;2023-04-07T16:10:08;13.70;47.80
1786;DHT22;890;48.158;11.540;2023-04-07T16:12:34;13.70;47.90
1786;DHT22;890;48.158;11.540;2023-04-07T16:15:01;13.50;48.00
1786;DHT22;890;48.158;11.540;2023-04-07T16:17:26;13.50;48.20
1786;DHT22;890;48.158;11.540;2023-04-07T16:19:53;13.40;48.10